AirNav   TITAN Aviation Fuels
 
 1612 users online  

CO01 General Mail Facility Heliport
Denver, Colorado, USA

GOING TO DENVER?


FAA INFORMATION EFFECTIVE 06 OCTOBER 2022

Location

FAA Identifier: CO01
Lat/Long: 39-47-33.4700N 104-53-56.8200W
39-47.557833N 104-53.947000W
39.7926306,-104.8991167
(estimated)
Elevation: 5223 ft. / 1592 m (estimated)
Variation: 11E (1990)
Time zone: UTC -6 (UTC -7 during Standard Time)
Zip code: 80216

Heliport Operations

Heliport use: Private use, MEDICAL.
Activation date: 02/1992
Control tower: no
ARTCC: DENVER CENTER
FSS: DENVER FLIGHT SERVICE STATION
Attendance: UNATNDD
Wind indicator: lighted
Segmented circle: no
Lights: SS-SR

Heliport Communications

WX ASOS at DEN (11 nm E): PHONE 303-342-1920
WX AWOS-3 at BJC (12 nm NW): PHONE 720-887-8067
WX ASOS at APA (14 nm S): PHONE 720-873-2799
WX AWOS-3 at EIK (15 nm NW): 133.825 (303-604-4339)
WX AWOS-3 at CFO (17 nm E): 119.025 (303-261-9104)

Nearby radio navigation aids

VOR radial/distance  VOR name  Freq  Var
DENr256/11.1DENVER VOR/DME117.9008E
BJCr112/13.2JEFFCO VOR/DME115.4011E
DVVr236/14.1MILE HIGH VORTAC114.7008E
FQFr285/14.2FALCON VORTAC116.3011E

Heliport Services

Runway Information

Helipad H1

Dimensions: 67 x 61 ft. / 20 x 19 m
Surface: concrete, in good condition
Runway edge lights: FLD
SURROUNDED BY EIGHT 40 FT FLOOD LGTS PLACED AT EACH CORNER AND MIDWAY ON EACH SIDE.
Latitude: 39-47.557833N
Longitude: 104-53.947000W
Elevation: 5223.0 ft.
Traffic pattern: leftleft

Heliport Ownership and Management from official FAA records

Ownership: Publicly-owned
Owner: UNITED STATES POSTAL SERVICE
7500 E. 53RD PL
DENVER, CO 80266-9341
Phone 303-297-6278
Manager: TAI RHO- NETWORKS
7500 E. 53RD PL RM 1135
DENVER, CO 80266-9341
Phone 303-853-6510

Additional Remarks

FOR CD CTC DENVER APCH AT 303-342-1916.

Instrument Procedures

There are no published instrument procedures at CO01.

Some nearby airports with instrument procedures:

KBKF - Buckley Space Force Base (9 nm SE)
KDEN - Denver International Airport (11 nm E)
KBJC - Rocky Mountain Metro Airport (12 nm NW)
KAPA - Centennial Airport (14 nm S)
KEIK - Erie Municipal Airport (15 nm NW)
KCFO - Colorado Air and Space Port Airport (17 nm E)
 
Loc | Ops | Rwys | IFR | FBO | Links
Com | Nav | Svcs | Stats | Notes

AirBoss

 
Area around CO01 (General Mail Facility Heliport)
 
Road maps at: MapQuest Bing Google
 
Aerial photo
No photo
 
Sectional chart

 
Airport distance calculator
Flying to General Mail Facility Heliport? Find the distance to fly.

From to CO01

Sunrise and sunset
Times for 06-Oct-2022
 Local
(UTC-6)
 Zulu
(UTC)
Morning civil twilight06:3512:35
Sunrise07:0213:02
Sunset18:3400:34
Evening civil twilight19:0101:01

Current date and time
Zulu (UTC)  06-Oct-2022 15:30:09
Local (UTC-6)  06-Oct-2022 09:30:09
 
METAR
KBKF 
8nm SE 
061458Z 21005KT 10SM FEW100 FEW220 12/05 A3041 RMK AO2A SLP259 T01180054 52007
KDEN 
12nm E 
061453Z 23007KT 10SM FEW120 FEW220 12/05 A3039 RMK AO2 SLP245 T01220050 53007
KBJC 
12nm NW 
061455Z 17003KT 10SM SKC 13/04 A3040
KAPA 
14nm S 
061453Z 13003KT 10SM FEW080 11/06 A3041 RMK AO2 SLP268 T01110061 52007
KEIK 
15nm NW 
061515Z AUTO 00000KT 10SM CLR 12/06 A3039 RMK AO2 T01210055 PWINO
KCFO 
17nm E 
061447Z 21006KT 10SM SKC 13/04 A3040
TAF
KBKF 
8nm SE 
060900Z 0609/0715 VRB06KT 9999 SKC 510033 QNH3030INS BECMG 0712/0713 VRB06KT 8000 BR OVC003 510033 QNH3043INS TX19/0622Z TN06/0712Z
KDEN 
12nm E 
061128Z 0612/0718 24006KT P6SM FEW200 FM061800 10008KT P6SM SCT200 FM070200 11012KT P6SM SCT100 BKN200 FM070700 07012KT P6SM SCT040 BKN150 FM071100 05010KT P6SM BKN025
KBJC 
12nm NW 
061128Z 0612/0712 VRB05KT P6SM FEW200 FM061800 10008KT P6SM SCT200 FM070200 34007KT P6SM SCT100 BKN200 FM071100 36007KT P6SM BKN025
KAPA 
14nm S 
061128Z 0612/0712 15006KT P6SM FEW200 FM061500 25006KT P6SM SCT200 FM061800 10007KT P6SM SCT200 FM070200 14010KT P6SM SCT100 BKN200 FM070800 24006KT P6SM SCT040 BKN150 FM071100 33007KT P6SM BKN025
NOTAMs
Click for the latest NOTAMs
NOTAMs are issued by the DoD/FAA and will open in a separate window not controlled by AirNav.

 

 
 

Would you like to see your business listed on this page?

 If your business provides an interesting product or service to pilots, flight crews, aircraft, or users of the General Mail Facility Heliport, you should consider listing it here.  To start the listing process, click on the button below
 
Add a business
 

Other Pages about General Mail Facility Heliport

Update a link
 
Copyright © AirNav, LLC. All rights reserved. Privacy Policy  Contact